Airfield :
LOGIN :

Register | Disclaimer

   EN    FR    IT 

 










Legend :    VFR   Marginal VFR   IFR   Intensive IFR   Very Intensive IFR
Visi :
Ceiling :
>= 8 km
>= 3000ft
5 to 8 km
1000 to 3000 ft
1500m to 5 km
500 to 1000 ft
800 to 1500m
200 to 500 ft
< 800m
< 200 ft
Symbols :   Thunderstorms  Fog  Heavy snow  Heavy precipitations  Wind > 20 kt
SIGMETs :     Misc.  Thunderstorms  Icing  Turbulence  Mountain Waves  Volcanic Ashes







- Airport Elevation : 26 ft
- IATA code : BIA
- Download approach charts


LFKB - Bastia

CURRENT METAR :
  • 181700Z AUTO VRB02KT 9999 SCT020 BKN029 BKN040 24/20 Q1014 NOSIG

EXPIRED METARs :
  • 181630Z AUTO 13003KT 090V160 9999 SCT021 BKN033 BKN046 25/20 Q1014 NOSIG
  • 181600Z AUTO VRB03KT 9999 BKN021 BKN042 BKN190 25/19 Q1014 NOSIG
  • 181530Z AUTO 09004KT 030V130 9999 BKN021 BKN041 BKN200 25/19 Q1014 NOSIG
  • 181500Z AUTO 06004KT 030V090 9999 SCT024 BKN043 BKN210 25/20 Q1014 NOSIG
  • 181430Z AUTO 07005KT 030V130 9999 FEW020 BKN044 BKN210 26/20 Q1014 NOSIG

TAF TAF LFKB
Valid from the 18 at 15:00 until the 19 at 15:00 UTC


181400Z 1815/1915 10010KT 9999 FEW030 BKN040 TX29/1912Z TN18/1903Z
BECMG 1819/1821 23004KT
PROB40
TEMPO 1900/1904 BKN010
BECMG 1908/1910 05010KT
TEMPO 1910/1915 TS FEW030CB
ATIS : +33 4 95 59 19 40
No reported NOTAMs for that airfield.



MET'MAP, your aeronautical weather chart ! - Copyright ORBIFLY December 2007 - Disclaimer

ORBIFLY MET'MAP TEAM :

Programming & Development : Alexandra Zaïnal
Concept & Development : Baudouin d'Aumeries
Co-Development & Prog : Marc-Olivier Méhu
Technical & hardware support : Manuel Goepfert

Contact : metmap@orbifly.com




SOURCES & CREDITS :

   NOAA